createdAt,value
2022-10-30T00:03:26.021Z,21.80
2022-10-30T00:08:47.841Z,21.42
2022-10-30T00:14:09.780Z,20.40
2022-10-30T00:19:31.618Z,25.67
2022-10-30T00:24:53.481Z,21.20
2022-10-30T00:30:15.443Z,21.30
2022-10-30T00:35:37.331Z,21.70
2022-10-30T00:40:59.183Z,21.55
2022-10-30T00:46:31.134Z,21.38
2022-10-30T00:51:54.782Z,19.48
2022-10-30T00:57:16.938Z,22.65
2022-10-30T01:02:40.381Z,21.15
2022-10-30T01:08:02.542Z,22.52
2022-10-30T01:13:25.260Z,18.23
2022-10-30T01:19:25.757Z,18.88
2022-10-30T01:24:56.564Z,17.05
2022-10-30T01:30:39.988Z,17.70
2022-10-30T01:36:27.895Z,18.08
2022-10-30T01:41:49.694Z,15.75
2022-10-30T01:47:22.869Z,16.15
2022-10-30T01:53:12.994Z,19.55
2022-10-30T01:58:49.195Z,17.77
2022-10-30T02:04:13.253Z,17.13
2022-10-30T02:09:35.573Z,17.05
2022-10-30T02:15:00.224Z,20.27
2022-10-30T02:20:23.191Z,15.05
2022-10-30T02:25:45.902Z,18.60
2022-10-30T02:31:07.746Z,16.45
2022-10-30T02:36:29.768Z,17.90
2022-10-30T02:41:51.545Z,16.88
2022-10-30T02:47:13.340Z,15.07
2022-10-30T02:52:35.223Z,16.17
2022-10-30T02:57:57.044Z,16.33
2022-10-30T03:03:23.007Z,17.25
2022-10-30T03:08:46.341Z,18.83
2022-10-30T03:14:08.209Z,17.98
2022-10-30T03:19:29.980Z,19.10
2022-10-30T03:24:51.783Z,19.88
2022-10-30T03:30:13.683Z,17.85
2022-10-30T03:35:36.460Z,20.80
2022-10-30T03:40:58.649Z,18.48
2022-10-30T03:46:20.436Z,21.20
2022-10-30T03:51:42.292Z,22.90
2022-10-30T03:57:04.234Z,17.65
2022-10-30T04:02:26.058Z,21.08
2022-10-30T04:07:48.081Z,18.92
2022-10-30T04:13:11.833Z,18.55
2022-10-30T04:18:33.664Z,21.80
2022-10-30T04:23:55.489Z,20.55
2022-10-30T04:29:17.360Z,21.58
2022-10-30T04:34:39.353Z,17.55
2022-10-30T04:40:01.194Z,19.08
2022-10-30T04:45:23.025Z,17.65
2022-10-30T04:50:45.262Z,22.88
2022-10-30T04:56:07.448Z,21.42
2022-10-30T05:01:29.383Z,18.65
2022-10-30T05:06:51.278Z,18.13
2022-10-30T05:12:13.180Z,20.92
2022-10-30T05:17:34.979Z,17.75
2022-10-30T05:22:58.580Z,15.85
2022-10-30T05:28:20.450Z,18.33
2022-10-30T05:33:42.354Z,17.15
2022-10-30T05:39:04.213Z,19.98
2022-10-30T05:44:47.426Z,19.75
2022-10-30T05:50:08.585Z,16.90
2022-10-30T05:55:30.790Z,18.50
2022-10-30T06:00:53.028Z,19.25
2022-10-30T06:06:14.844Z,20.83
2022-10-30T06:11:36.683Z,19.70
2022-10-30T06:16:58.551Z,19.67
2022-10-30T06:22:20.393Z,16.88
2022-10-30T06:27:43.597Z,17.02
2022-10-30T06:33:05.905Z,15.32
2022-10-30T06:38:27.696Z,15.63
2022-10-30T06:43:49.513Z,13.05
2022-10-30T06:49:12.199Z,16.45
2022-10-30T06:54:34.152Z,15.48
2022-10-30T06:59:56.103Z,17.13
2022-10-30T07:05:17.918Z,12.80
2022-10-30T07:10:40.163Z,13.95
2022-10-30T07:16:01.982Z,14.75
2022-10-30T07:21:25.949Z,13.27
2022-10-30T07:26:47.762Z,13.80
2022-10-30T07:32:12.688Z,16.80
2022-10-30T07:37:34.505Z,17.15
2022-10-30T07:42:57.992Z,15.90
2022-10-30T07:48:20.057Z,17.48
2022-10-30T07:53:41.919Z,15.35
2022-10-30T07:59:03.741Z,18.23
2022-10-30T08:04:25.567Z,20.35
2022-10-30T08:09:47.382Z,13.68
2022-10-30T08:15:09.803Z,16.73
2022-10-30T08:20:31.614Z,14.93
2022-10-30T08:25:53.471Z,13.65
2022-10-30T08:31:15.299Z,14.90
2022-10-30T08:36:37.115Z,12.05
2022-10-30T08:41:59.291Z,15.55
2022-10-30T08:47:21.114Z,15.95
2022-10-30T08:52:42.981Z,15.15
2022-10-30T08:58:05.005Z,17.08
2022-10-30T09:03:26.859Z,16.27
2022-10-30T09:08:48.686Z,14.32
2022-10-30T09:14:10.555Z,13.70
2022-10-30T09:19:32.387Z,14.63
2022-10-30T09:24:54.213Z,15.32
2022-10-30T09:30:16.171Z,16.63
2022-10-30T09:35:38.056Z,15.25
2022-10-30T09:41:16.656Z,15.15
2022-10-30T09:47:11.683Z,13.15
2022-10-30T09:52:45.987Z,14.35
2022-10-30T09:58:35.630Z,15.38
2022-10-30T10:04:23.962Z,13.52
2022-10-30T10:09:51.415Z,11.07
2022-10-30T10:15:39.495Z,14.05
2022-10-30T10:21:14.016Z,11.27
2022-10-30T10:27:08.993Z,9.52
2022-10-30T10:32:39.913Z,6.82
2022-10-30T10:38:27.803Z,7.35
2022-10-30T10:43:55.382Z,7.50
2022-10-30T10:49:40.219Z,8.30
2022-10-30T10:55:27.076Z,7.20
2022-10-30T11:00:49.017Z,7.53
2022-10-30T11:06:25.832Z,7.78
2022-10-30T11:11:53.453Z,7.57
2022-10-30T11:17:24.131Z,5.93
2022-10-30T11:22:50.277Z,10.00
2022-10-30T11:28:34.633Z,6.78
2022-10-30T11:33:56.643Z,6.43
2022-10-30T11:39:22.504Z,6.20
2022-10-30T11:44:50.392Z,5.57
2022-10-30T11:50:22.036Z,13.93
2022-10-30T11:55:49.211Z,4.45
2022-10-30T12:01:22.256Z,4.53
2022-10-30T12:06:44.247Z,5.70
2022-10-30T12:12:21.508Z,3.65
2022-10-30T12:17:55.522Z,5.10
2022-10-30T12:23:20.792Z,4.55
2022-10-30T12:28:57.275Z,3.55
2022-10-30T12:34:25.136Z,3.78
2022-10-30T12:40:13.841Z,3.90
2022-10-30T12:45:44.853Z,3.85
2022-10-30T12:51:09.388Z,2.97
2022-10-30T12:56:38.910Z,5.32
2022-10-30T13:02:16.124Z,4.60
2022-10-30T13:07:50.175Z,3.83
2022-10-30T13:13:23.385Z,4.88
2022-10-30T13:18:45.252Z,6.10
2022-10-30T13:24:21.472Z,4.80
2022-10-30T13:30:04.772Z,6.88
2022-10-30T13:35:45.241Z,5.25
2022-10-30T13:41:19.932Z,5.63
2022-10-30T13:47:18.428Z,7.05
2022-10-30T13:52:48.487Z,5.65
2022-10-30T13:58:29.490Z,6.07
2022-10-30T14:04:06.623Z,4.38
2022-10-30T14:09:45.201Z,6.03
2022-10-30T14:15:18.971Z,6.75
2022-10-30T14:20:49.604Z,4.53
2022-10-30T14:26:19.432Z,3.97
2022-10-30T14:31:41.249Z,4.40
2022-10-30T14:37:03.301Z,5.75
2022-10-30T14:42:25.090Z,4.55
2022-10-30T14:47:46.872Z,5.53
2022-10-30T14:53:31.332Z,4.85
2022-10-30T14:59:12.424Z,5.70
2022-10-30T15:04:40.157Z,5.80
2022-10-30T15:10:21.983Z,6.53
2022-10-30T15:15:44.912Z,5.25
2022-10-30T15:21:07.621Z,10.00
2022-10-30T15:26:36.747Z,5.70
2022-10-30T15:32:25.284Z,6.18
2022-10-30T15:38:07.797Z,5.45
2022-10-30T15:43:33.644Z,5.80
2022-10-30T15:48:55.524Z,10.47
2022-10-30T15:54:20.473Z,7.72
2022-10-30T15:59:53.254Z,7.13
2022-10-30T16:05:22.925Z,6.63
2022-10-30T16:10:46.049Z,9.23
2022-10-30T16:16:16.782Z,7.15
2022-10-30T16:21:38.699Z,14.93
2022-10-30T16:27:14.069Z,8.60
2022-10-30T16:32:35.947Z,7.25
2022-10-30T16:37:58.077Z,5.40
2022-10-30T16:43:29.766Z,8.20
2022-10-30T16:48:59.309Z,11.15
2022-10-30T16:54:24.956Z,6.95
2022-10-30T16:59:51.007Z,8.32
2022-10-30T17:05:26.183Z,8.40
2022-10-30T17:10:47.985Z,9.30
2022-10-30T17:16:18.778Z,7.65
2022-10-30T17:21:42.478Z,9.43
2022-10-30T17:27:07.141Z,9.02
2022-10-30T17:32:42.814Z,9.82
2022-10-30T17:38:04.933Z,10.80
2022-10-30T17:43:33.337Z,9.20
2022-10-30T17:48:58.195Z,13.68
2022-10-30T17:54:20.279Z,13.95
2022-10-30T17:59:43.059Z,14.30
2022-10-30T18:05:21.613Z,11.00
2022-10-30T18:10:43.504Z,11.25
2022-10-30T18:16:05.784Z,11.18
2022-10-30T18:21:27.582Z,12.30
2022-10-30T18:26:49.408Z,10.68
2022-10-30T18:32:11.450Z,8.90
2022-10-30T18:37:33.267Z,9.48
2022-10-30T18:42:55.561Z,18.15
2022-10-30T18:48:17.353Z,10.20
2022-10-30T18:53:39.170Z,14.32
2022-10-30T18:59:02.541Z,11.10
2022-10-30T19:04:24.804Z,13.82
2022-10-30T19:09:47.097Z,14.73
2022-10-30T19:15:23.237Z,14.02
2022-10-30T19:21:03.250Z,17.30
2022-10-30T19:26:26.707Z,13.52
2022-10-30T19:31:48.517Z,12.07
2022-10-30T19:37:10.345Z,15.02
2022-10-30T19:42:32.159Z,13.07
2022-10-30T19:47:59.426Z,13.43
2022-10-30T19:53:21.264Z,13.02
2022-10-30T19:58:43.099Z,13.95
2022-10-30T20:04:04.909Z,19.42
2022-10-30T20:09:26.713Z,13.82
2022-10-30T20:14:48.533Z,20.63
2022-10-30T20:20:22.995Z,19.73
2022-10-30T20:25:45.183Z,23.45
2022-10-30T20:31:08.563Z,17.35
2022-10-30T20:36:30.421Z,18.02
2022-10-30T20:41:52.931Z,18.27
2022-10-30T20:47:14.755Z,23.75
2022-10-30T20:52:36.630Z,33.47
2022-10-30T20:57:58.824Z,33.45
2022-10-30T21:03:20.777Z,32.97
2022-10-30T21:08:42.632Z,32.38
2022-10-30T21:14:04.440Z,32.30
2022-10-30T21:19:26.654Z,33.80
2022-10-30T21:24:48.510Z,30.52
2022-10-30T21:30:10.964Z,32.25
2022-10-30T21:35:33.690Z,34.83
2022-10-30T21:40:55.989Z,34.35
2022-10-30T21:46:18.638Z,37.33
2022-10-30T21:51:40.476Z,40.08
2022-10-30T21:57:02.369Z,35.92
2022-10-30T22:02:24.236Z,38.80
2022-10-30T22:07:46.058Z,34.03
2022-10-30T22:13:07.948Z,36.97
2022-10-30T22:18:29.876Z,33.58
2022-10-30T22:23:51.688Z,33.78
2022-10-30T22:29:13.658Z,31.83
2022-10-30T22:34:35.468Z,36.85
2022-10-30T22:39:57.282Z,39.67
2022-10-30T22:45:19.104Z,35.78
2022-10-30T22:50:40.933Z,41.85
2022-10-30T22:56:21.376Z,37.22
2022-10-30T23:01:43.283Z,40.72
2022-10-30T23:07:05.145Z,35.60
2022-10-30T23:12:27.100Z,33.38
2022-10-30T23:17:49.617Z,32.92
2022-10-30T23:23:12.042Z,40.45
2022-10-30T23:28:33.932Z,36.90
2022-10-30T23:33:58.427Z,36.25
2022-10-30T23:39:20.220Z,35.97
2022-10-30T23:44:42.033Z,37.85
2022-10-30T23:50:04.216Z,33.78
2022-10-30T23:55:26.023Z,36.35
